sensor_id;sensor_type;location;lat;lon;timestamp;P1;durP1;ratioP1;P2;durP2;ratioP2
19842;SDS011;10082;51.038;6.992;2024-02-26T00:00:23;1.40;;;1.20;;
19842;SDS011;10082;51.038;6.992;2024-02-26T00:02:50;1.15;;;0.80;;
19842;SDS011;10082;51.038;6.992;2024-02-26T00:05:17;1.15;;;1.05;;
19842;SDS011;10082;51.038;6.992;2024-02-26T00:07:45;0.98;;;0.90;;
19842;SDS011;10082;51.038;6.992;2024-02-26T00:10:14;0.85;;;0.85;;
19842;SDS011;10082;51.038;6.992;2024-02-26T00:12:41;1.00;;;0.93;;
19842;SDS011;10082;51.038;6.992;2024-02-26T00:15:09;0.88;;;0.82;;
19842;SDS011;10082;51.038;6.992;2024-02-26T00:17:36;1.13;;;1.02;;
19842;SDS011;10082;51.038;6.992;2024-02-26T00:20:03;0.82;;;0.82;;
19842;SDS011;10082;51.038;6.992;2024-02-26T00:22:33;1.05;;;0.88;;
19842;SDS011;10082;51.038;6.992;2024-02-26T00:25:03;1.00;;;0.90;;
19842;SDS011;10082;51.038;6.992;2024-02-26T00:27:31;1.65;;;1.00;;
19842;SDS011;10082;51.038;6.992;2024-02-26T00:29:58;0.90;;;0.90;;
19842;SDS011;10082;51.038;6.992;2024-02-26T00:32:25;1.13;;;0.98;;
19842;SDS011;10082;51.038;6.992;2024-02-26T00:34:52;1.17;;;1.08;;
19842;SDS011;10082;51.038;6.992;2024-02-26T00:37:19;1.08;;;0.90;;
19842;SDS011;10082;51.038;6.992;2024-02-26T00:39:46;1.10;;;1.02;;
19842;SDS011;10082;51.038;6.992;2024-02-26T00:42:15;1.02;;;0.93;;
19842;SDS011;10082;51.038;6.992;2024-02-26T00:44:42;0.95;;;0.82;;
19842;SDS011;10082;51.038;6.992;2024-02-26T00:47:09;1.13;;;0.90;;
19842;SDS011;10082;51.038;6.992;2024-02-26T00:49:36;0.65;;;0.65;;
19842;SDS011;10082;51.038;6.992;2024-02-26T00:52:09;0.80;;;0.75;;
19842;SDS011;10082;51.038;6.992;2024-02-26T00:54:36;1.65;;;0.70;;
19842;SDS011;10082;51.038;6.992;2024-02-26T00:57:03;1.75;;;0.80;;
19842;SDS011;10082;51.038;6.992;2024-02-26T00:59:32;0.85;;;0.70;;
19842;SDS011;10082;51.038;6.992;2024-02-26T01:01:59;0.70;;;0.70;;
19842;SDS011;10082;51.038;6.992;2024-02-26T01:04:27;1.00;;;0.70;;
19842;SDS011;10082;51.038;6.992;2024-02-26T01:06:54;0.73;;;0.70;;
19842;SDS011;10082;51.038;6.992;2024-02-26T01:09:21;0.70;;;0.60;;
19842;SDS011;10082;51.038;6.992;2024-02-26T01:11:48;2.05;;;0.77;;
19842;SDS011;10082;51.038;6.992;2024-02-26T01:14:15;0.90;;;0.75;;
19842;SDS011;10082;51.038;6.992;2024-02-26T01:16:44;0.68;;;0.68;;
19842;SDS011;10082;51.038;6.992;2024-02-26T01:19:11;0.90;;;0.80;;
19842;SDS011;10082;51.038;6.992;2024-02-26T01:21:38;0.70;;;0.70;;
19842;SDS011;10082;51.038;6.992;2024-02-26T01:24:06;0.85;;;0.70;;
19842;SDS011;10082;51.038;6.992;2024-02-26T01:26:33;0.80;;;0.80;;
19842;SDS011;10082;51.038;6.992;2024-02-26T01:29:00;0.90;;;0.82;;
19842;SDS011;10082;51.038;6.992;2024-02-26T01:31:27;1.00;;;0.90;;
19842;SDS011;10082;51.038;6.992;2024-02-26T01:33:56;1.05;;;0.88;;
19842;SDS011;10082;51.038;6.992;2024-02-26T01:36:23;0.65;;;0.65;;
19842;SDS011;10082;51.038;6.992;2024-02-26T01:38:50;0.68;;;0.68;;
19842;SDS011;10082;51.038;6.992;2024-02-26T01:41:17;2.92;;;1.05;;
19842;SDS011;10082;51.038;6.992;2024-02-26T01:43:45;1.10;;;0.70;;
19842;SDS011;10082;51.038;6.992;2024-02-26T01:46:12;2.05;;;0.80;;
19842;SDS011;10082;51.038;6.992;2024-02-26T01:48:41;0.73;;;0.73;;
19842;SDS011;10082;51.038;6.992;2024-02-26T01:51:10;1.02;;;0.70;;
19842;SDS011;10082;51.038;6.992;2024-02-26T01:53:40;1.20;;;1.10;;
19842;SDS011;10082;51.038;6.992;2024-02-26T01:56:08;1.33;;;1.00;;
19842;SDS011;10082;51.038;6.992;2024-02-26T01:58:35;1.35;;;0.88;;
19842;SDS011;10082;51.038;6.992;2024-02-26T02:01:03;1.35;;;0.70;;
19842;SDS011;10082;51.038;6.992;2024-02-26T02:03:31;0.77;;;0.70;;
19842;SDS011;10082;51.038;6.992;2024-02-26T02:05:58;0.70;;;0.70;;
19842;SDS011;10082;51.038;6.992;2024-02-26T02:08:27;1.10;;;0.75;;
19842;SDS011;10082;51.038;6.992;2024-02-26T02:10:54;1.05;;;0.70;;
19842;SDS011;10082;51.038;6.992;2024-02-26T02:13:23;0.55;;;0.55;;
19842;SDS011;10082;51.038;6.992;2024-02-26T02:15:50;1.60;;;0.82;;
19842;SDS011;10082;51.038;6.992;2024-02-26T02:18:17;0.75;;;0.73;;
19842;SDS011;10082;51.038;6.992;2024-02-26T02:20:46;0.93;;;0.77;;
19842;SDS011;10082;51.038;6.992;2024-02-26T02:23:14;0.75;;;0.68;;
19842;SDS011;10082;51.038;6.992;2024-02-26T02:25:40;2.20;;;0.93;;
19842;SDS011;10082;51.038;6.992;2024-02-26T02:28:08;0.93;;;0.70;;
19842;SDS011;10082;51.038;6.992;2024-02-26T02:30:36;2.33;;;0.82;;
19842;SDS011;10082;51.038;6.992;2024-02-26T02:33:04;1.77;;;0.80;;
19842;SDS011;10082;51.038;6.992;2024-02-26T02:35:32;1.05;;;0.70;;
19842;SDS011;10082;51.038;6.992;2024-02-26T02:38:00;0.88;;;0.77;;
19842;SDS011;10082;51.038;6.992;2024-02-26T02:40:33;1.40;;;0.80;;
19842;SDS011;10082;51.038;6.992;2024-02-26T02:43:00;0.70;;;0.70;;
19842;SDS011;10082;51.038;6.992;2024-02-26T02:45:27;1.13;;;0.82;;
19842;SDS011;10082;51.038;6.992;2024-02-26T02:47:55;0.70;;;0.70;;
19842;SDS011;10082;51.038;6.992;2024-02-26T02:50:22;0.80;;;0.70;;
19842;SDS011;10082;51.038;6.992;2024-02-26T02:52:49;0.80;;;0.70;;
19842;SDS011;10082;51.038;6.992;2024-02-26T02:55:18;0.93;;;0.70;;
19842;SDS011;10082;51.038;6.992;2024-02-26T02:57:45;0.95;;;0.85;;
19842;SDS011;10082;51.038;6.992;2024-02-26T03:00:12;1.20;;;0.80;;
19842;SDS011;10082;51.038;6.992;2024-02-26T03:02:39;1.70;;;0.88;;
19842;SDS011;10082;51.038;6.992;2024-02-26T03:05:08;0.75;;;0.73;;
19842;SDS011;10082;51.038;6.992;2024-02-26T03:07:35;1.23;;;0.80;;
19842;SDS011;10082;51.038;6.992;2024-02-26T03:10:02;0.95;;;0.88;;
19842;SDS011;10082;51.038;6.992;2024-02-26T03:12:31;1.45;;;0.80;;
19842;SDS011;10082;51.038;6.992;2024-02-26T03:14:58;0.77;;;0.77;;
19842;SDS011;10082;51.038;6.992;2024-02-26T03:17:26;0.80;;;0.80;;
19842;SDS011;10082;51.038;6.992;2024-02-26T03:19:54;0.90;;;0.70;;
19842;SDS011;10082;51.038;6.992;2024-02-26T03:22:21;2.20;;;1.15;;
19842;SDS011;10082;51.038;6.992;2024-02-26T03:24:49;1.23;;;0.80;;
19842;SDS011;10082;51.038;6.992;2024-02-26T03:27:16;0.63;;;0.63;;
19842;SDS011;10082;51.038;6.992;2024-02-26T03:29:45;1.53;;;0.70;;
19842;SDS011;10082;51.038;6.992;2024-02-26T03:32:13;0.77;;;0.70;;
19842;SDS011;10082;51.038;6.992;2024-02-26T03:34:40;2.38;;;0.80;;
19842;SDS011;10082;51.038;6.992;2024-02-26T03:37:07;0.73;;;0.60;;
19842;SDS011;10082;51.038;6.992;2024-02-26T03:39:36;0.80;;;0.80;;
19842;SDS011;10082;51.038;6.992;2024-02-26T03:42:03;1.73;;;1.20;;
19842;SDS011;10082;51.038;6.992;2024-02-26T03:44:30;1.13;;;1.03;;
19842;SDS011;10082;51.038;6.992;2024-02-26T03:47:02;1.33;;;0.88;;
19842;SDS011;10082;51.038;6.992;2024-02-26T03:49:29;1.98;;;0.95;;
19842;SDS011;10082;51.038;6.992;2024-02-26T03:51:57;1.13;;;0.80;;
19842;SDS011;10082;51.038;6.992;2024-02-26T03:54:24;0.90;;;0.80;;
19842;SDS011;10082;51.038;6.992;2024-02-26T03:56:51;1.10;;;1.00;;
19842;SDS011;10082;51.038;6.992;2024-02-26T03:59:18;0.80;;;0.80;;
19842;SDS011;10082;51.038;6.992;2024-02-26T04:01:47;1.50;;;0.80;;
19842;SDS011;10082;51.038;6.992;2024-02-26T04:04:16;2.55;;;0.80;;
19842;SDS011;10082;51.038;6.992;2024-02-26T04:06:44;1.75;;;0.80;;
19842;SDS011;10082;51.038;6.992;2024-02-26T04:09:12;1.75;;;0.77;;
19842;SDS011;10082;51.038;6.992;2024-02-26T04:11:39;1.67;;;0.90;;
19842;SDS011;10082;51.038;6.992;2024-02-26T04:14:08;0.70;;;0.70;;
19842;SDS011;10082;51.038;6.992;2024-02-26T04:16:37;1.15;;;0.88;;
19842;SDS011;10082;51.038;6.992;2024-02-26T04:19:04;1.25;;;0.90;;
19842;SDS011;10082;51.038;6.992;2024-02-26T04:21:33;1.73;;;1.00;;
19842;SDS011;10082;51.038;6.992;2024-02-26T04:24:00;1.27;;;0.70;;
19842;SDS011;10082;51.038;6.992;2024-02-26T04:26:28;1.13;;;1.00;;
19842;SDS011;10082;51.038;6.992;2024-02-26T04:28:56;0.80;;;0.80;;
19842;SDS011;10082;51.038;6.992;2024-02-26T04:31:24;1.52;;;1.08;;
19842;SDS011;10082;51.038;6.992;2024-02-26T04:33:52;1.15;;;1.05;;
19842;SDS011;10082;51.038;6.992;2024-02-26T04:36:19;1.58;;;1.00;;
19842;SDS011;10082;51.038;6.992;2024-02-26T04:38:48;1.63;;;1.00;;
19842;SDS011;10082;51.038;6.992;2024-02-26T04:41:16;1.77;;;1.10;;
19842;SDS011;10082;51.038;6.992;2024-02-26T04:43:43;2.42;;;1.38;;
19842;SDS011;10082;51.038;6.992;2024-02-26T04:46:10;2.95;;;1.45;;
19842;SDS011;10082;51.038;6.992;2024-02-26T04:48:37;2.58;;;1.30;;
19842;SDS011;10082;51.038;6.992;2024-02-26T04:51:06;1.23;;;1.13;;
19842;SDS011;10082;51.038;6.992;2024-02-26T04:53:40;1.20;;;1.10;;
19842;SDS011;10082;51.038;6.992;2024-02-26T04:56:08;2.70;;;1.20;;
19842;SDS011;10082;51.038;6.992;2024-02-26T04:58:35;1.70;;;1.17;;
19842;SDS011;10082;51.038;6.992;2024-02-26T05:01:03;2.33;;;1.27;;
19842;SDS011;10082;51.038;6.992;2024-02-26T05:03:30;2.08;;;1.20;;
19842;SDS011;10082;51.038;6.992;2024-02-26T05:05:57;1.67;;;1.20;;
19842;SDS011;10082;51.038;6.992;2024-02-26T05:08:25;2.85;;;1.45;;
19842;SDS011;10082;51.038;6.992;2024-02-26T05:10:53;1.45;;;1.35;;
19842;SDS011;10082;51.038;6.992;2024-02-26T05:13:22;2.03;;;1.30;;
19842;SDS011;10082;51.038;6.992;2024-02-26T05:15:49;2.47;;;1.75;;
19842;SDS011;10082;51.038;6.992;2024-02-26T05:18:17;1.70;;;1.40;;
19842;SDS011;10082;51.038;6.992;2024-02-26T05:20:44;2.67;;;1.65;;
19842;SDS011;10082;51.038;6.992;2024-02-26T05:23:11;1.63;;;1.48;;
19842;SDS011;10082;51.038;6.992;2024-02-26T05:25:38;2.97;;;1.63;;
19842;SDS011;10082;51.038;6.992;2024-02-26T05:28:06;2.60;;;1.38;;
19842;SDS011;10082;51.038;6.992;2024-02-26T05:30:35;1.77;;;1.40;;
19842;SDS011;10082;51.038;6.992;2024-02-26T05:33:05;2.30;;;1.38;;
19842;SDS011;10082;51.038;6.992;2024-02-26T05:35:32;3.15;;;1.55;;
19842;SDS011;10082;51.038;6.992;2024-02-26T05:38:04;2.28;;;1.65;;
19842;SDS011;10082;51.038;6.992;2024-02-26T05:40:31;3.22;;;1.70;;
19842;SDS011;10082;51.038;6.992;2024-02-26T05:42:58;3.25;;;2.00;;
19842;SDS011;10082;51.038;6.992;2024-02-26T05:45:26;2.95;;;1.90;;
19842;SDS011;10082;51.038;6.992;2024-02-26T05:47:54;3.35;;;1.70;;
19842;SDS011;10082;51.038;6.992;2024-02-26T05:50:21;2.40;;;1.90;;
19842;SDS011;10082;51.038;6.992;2024-02-26T05:52:48;3.67;;;1.92;;
19842;SDS011;10082;51.038;6.992;2024-02-26T05:55:15;3.25;;;1.95;;
19842;SDS011;10082;51.038;6.992;2024-02-26T05:57:42;4.50;;;2.17;;
19842;SDS011;10082;51.038;6.992;2024-02-26T06:00:11;3.55;;;2.08;;
19842;SDS011;10082;51.038;6.992;2024-02-26T06:02:39;2.63;;;2.08;;
19842;SDS011;10082;51.038;6.992;2024-02-26T06:05:08;2.75;;;1.83;;
19842;SDS011;10082;51.038;6.992;2024-02-26T06:07:35;2.50;;;1.70;;
19842;SDS011;10082;51.038;6.992;2024-02-26T06:10:03;2.33;;;1.90;;
19842;SDS011;10082;51.038;6.992;2024-02-26T06:12:31;3.15;;;2.00;;
19842;SDS011;10082;51.038;6.992;2024-02-26T06:14:58;4.28;;;2.17;;
19842;SDS011;10082;51.038;6.992;2024-02-26T06:17:26;2.28;;;1.88;;
19842;SDS011;10082;51.038;6.992;2024-02-26T06:19:54;3.75;;;2.20;;
19842;SDS011;10082;51.038;6.992;2024-02-26T06:22:22;3.75;;;2.50;;
19842;SDS011;10082;51.038;6.992;2024-02-26T06:24:49;2.50;;;1.90;;
19842;SDS011;10082;51.038;6.992;2024-02-26T06:27:16;2.10;;;1.90;;
19842;SDS011;10082;51.038;6.992;2024-02-26T06:29:43;3.57;;;2.30;;
19842;SDS011;10082;51.038;6.992;2024-02-26T06:32:11;2.97;;;2.10;;
19842;SDS011;10082;51.038;6.992;2024-02-26T06:34:38;2.50;;;2.20;;
19842;SDS011;10082;51.038;6.992;2024-02-26T06:37:07;2.27;;;1.87;;
19842;SDS011;10082;51.038;6.992;2024-02-26T06:39:35;2.47;;;2.27;;
19842;SDS011;10082;51.038;6.992;2024-02-26T06:42:03;2.80;;;2.07;;
19842;SDS011;10082;51.038;6.992;2024-02-26T06:44:30;2.13;;;1.93;;
19842;SDS011;10082;51.038;6.992;2024-02-26T06:46:58;2.90;;;2.00;;
19842;SDS011;10082;51.038;6.992;2024-02-26T06:49:25;2.38;;;2.05;;
19842;SDS011;10082;51.038;6.992;2024-02-26T06:51:51;2.60;;;2.40;;
19842;SDS011;10082;51.038;6.992;2024-02-26T06:54:19;2.55;;;2.00;;
19842;SDS011;10082;51.038;6.992;2024-02-26T06:56:47;2.93;;;2.27;;
19842;SDS011;10082;51.038;6.992;2024-02-26T06:59:14;2.28;;;2.08;;
19842;SDS011;10082;51.038;6.992;2024-02-26T07:01:43;5.78;;;2.58;;
19842;SDS011;10082;51.038;6.992;2024-02-26T07:04:10;4.88;;;2.60;;
19842;SDS011;10082;51.038;6.992;2024-02-26T07:06:37;4.18;;;2.58;;
19842;SDS011;10082;51.038;6.992;2024-02-26T07:09:04;2.33;;;2.13;;
19842;SDS011;10082;51.038;6.992;2024-02-26T07:11:31;2.83;;;2.10;;
19842;SDS011;10082;51.038;6.992;2024-02-26T07:14:00;3.90;;;2.20;;
19842;SDS011;10082;51.038;6.992;2024-02-26T07:16:27;2.75;;;2.22;;
19842;SDS011;10082;51.038;6.992;2024-02-26T07:18:54;2.70;;;2.50;;
19842;SDS011;10082;51.038;6.992;2024-02-26T07:21:21;3.33;;;2.30;;
19842;SDS011;10082;51.038;6.992;2024-02-26T07:23:49;3.63;;;2.45;;
19842;SDS011;10082;51.038;6.992;2024-02-26T07:26:16;3.15;;;2.28;;
19842;SDS011;10082;51.038;6.992;2024-02-26T07:28:44;2.40;;;2.20;;
19842;SDS011;10082;51.038;6.992;2024-02-26T07:31:13;3.83;;;2.60;;
19842;SDS011;10082;51.038;6.992;2024-02-26T07:33:40;2.78;;;2.38;;
19842;SDS011;10082;51.038;6.992;2024-02-26T07:36:07;3.50;;;2.38;;
19842;SDS011;10082;51.038;6.992;2024-02-26T07:38:34;3.00;;;2.50;;
19842;SDS011;10082;51.038;6.992;2024-02-26T07:41:01;2.70;;;2.42;;
19842;SDS011;10082;51.038;6.992;2024-02-26T07:43:29;2.60;;;2.17;;
19842;SDS011;10082;51.038;6.992;2024-02-26T07:45:56;3.63;;;2.40;;
19842;SDS011;10082;51.038;6.992;2024-02-26T07:48:25;2.97;;;2.25;;
19842;SDS011;10082;51.038;6.992;2024-02-26T07:50:52;4.30;;;2.83;;
19842;SDS011;10082;51.038;6.992;2024-02-26T07:53:19;3.60;;;2.30;;
19842;SDS011;10082;51.038;6.992;2024-02-26T07:55:47;4.18;;;2.63;;
19842;SDS011;10082;51.038;6.992;2024-02-26T07:58:14;2.53;;;2.33;;
19842;SDS011;10082;51.038;6.992;2024-02-26T08:00:41;2.45;;;2.20;;
19842;SDS011;10082;51.038;6.992;2024-02-26T08:03:08;3.37;;;2.40;;
19842;SDS011;10082;51.038;6.992;2024-02-26T08:05:37;2.38;;;2.17;;
19842;SDS011;10082;51.038;6.992;2024-02-26T08:10:41;4.50;;;2.60;;
19842;SDS011;10082;51.038;6.992;2024-02-26T08:13:08;3.28;;;2.58;;
19842;SDS011;10082;51.038;6.992;2024-02-26T08:15:35;2.72;;;2.33;;
19842;SDS011;10082;51.038;6.992;2024-02-26T08:18:03;2.53;;;2.33;;
19842;SDS011;10082;51.038;6.992;2024-02-26T08:20:31;3.27;;;2.40;;
19842;SDS011;10082;51.038;6.992;2024-02-26T08:22:59;2.60;;;2.40;;
19842;SDS011;10082;51.038;6.992;2024-02-26T08:25:27;2.45;;;2.25;;
19842;SDS011;10082;51.038;6.992;2024-02-26T08:27:54;2.80;;;2.20;;
19842;SDS011;10082;51.038;6.992;2024-02-26T08:30:21;2.63;;;2.40;;
19842;SDS011;10082;51.038;6.992;2024-02-26T08:32:48;2.75;;;2.45;;
19842;SDS011;10082;51.038;6.992;2024-02-26T08:35:15;3.60;;;2.78;;
19842;SDS011;10082;51.038;6.992;2024-02-26T08:37:44;4.05;;;2.55;;
19842;SDS011;10082;51.038;6.992;2024-02-26T08:40:12;3.70;;;2.37;;
19842;SDS011;10082;51.038;6.992;2024-02-26T08:42:40;2.70;;;2.50;;
19842;SDS011;10082;51.038;6.992;2024-02-26T08:45:07;3.55;;;2.60;;
19842;SDS011;10082;51.038;6.992;2024-02-26T08:47:36;3.00;;;2.33;;
19842;SDS011;10082;51.038;6.992;2024-02-26T08:50:03;3.17;;;2.80;;
19842;SDS011;10082;51.038;6.992;2024-02-26T08:52:32;2.63;;;2.42;;
19842;SDS011;10082;51.038;6.992;2024-02-26T08:54:59;2.88;;;2.40;;
19842;SDS011;10082;51.038;6.992;2024-02-26T08:57:29;2.47;;;2.20;;
19842;SDS011;10082;51.038;6.992;2024-02-26T08:59:57;2.37;;;2.17;;
19842;SDS011;10082;51.038;6.992;2024-02-26T09:02:25;2.75;;;2.38;;
19842;SDS011;10082;51.038;6.992;2024-02-26T09:04:52;2.70;;;2.22;;
19842;SDS011;10082;51.038;6.992;2024-02-26T09:07:20;2.95;;;2.60;;
19842;SDS011;10082;51.038;6.992;2024-02-26T09:09:47;4.10;;;2.50;;
19842;SDS011;10082;51.038;6.992;2024-02-26T09:12:14;3.10;;;2.72;;
19842;SDS011;10082;51.038;6.992;2024-02-26T09:14:43;2.60;;;2.20;;
19842;SDS011;10082;51.038;6.992;2024-02-26T09:17:10;2.90;;;2.35;;
19842;SDS011;10082;51.038;6.992;2024-02-26T09:19:37;2.60;;;2.40;;
19842;SDS011;10082;51.038;6.992;2024-02-26T09:22:04;2.83;;;2.28;;
19842;SDS011;10082;51.038;6.992;2024-02-26T09:24:32;2.42;;;2.00;;
19842;SDS011;10082;51.038;6.992;2024-02-26T09:26:59;2.30;;;2.10;;
19842;SDS011;10082;51.038;6.992;2024-02-26T09:29:26;2.60;;;2.40;;
19842;SDS011;10082;51.038;6.992;2024-02-26T09:31:55;2.80;;;2.60;;
19842;SDS011;10082;51.038;6.992;2024-02-26T09:34:22;3.13;;;2.45;;
19842;SDS011;10082;51.038;6.992;2024-02-26T09:36:52;2.90;;;2.60;;
19842;SDS011;10082;51.038;6.992;2024-02-26T09:39:19;3.92;;;2.42;;
19842;SDS011;10082;51.038;6.992;2024-02-26T09:41:47;4.32;;;2.65;;
19842;SDS011;10082;51.038;6.992;2024-02-26T09:44:15;3.08;;;2.25;;
19842;SDS011;10082;51.038;6.992;2024-02-26T09:46:45;3.00;;;2.40;;
19842;SDS011;10082;51.038;6.992;2024-02-26T09:49:16;2.85;;;2.20;;
19842;SDS011;10082;51.038;6.992;2024-02-26T09:51:43;2.97;;;2.47;;
19842;SDS011;10082;51.038;6.992;2024-02-26T09:54:10;2.93;;;2.40;;
19842;SDS011;10082;51.038;6.992;2024-02-26T09:56:39;3.03;;;2.50;;
19842;SDS011;10082;51.038;6.992;2024-02-26T09:59:10;3.88;;;2.70;;
19842;SDS011;10082;51.038;6.992;2024-02-26T10:01:41;2.47;;;2.28;;
19842;SDS011;10082;51.038;6.992;2024-02-26T10:04:09;3.45;;;2.63;;
19842;SDS011;10082;51.038;6.992;2024-02-26T10:06:38;3.60;;;2.67;;
19842;SDS011;10082;51.038;6.992;2024-02-26T10:09:08;2.80;;;2.47;;
19842;SDS011;10082;51.038;6.992;2024-02-26T10:11:37;2.92;;;2.30;;
19842;SDS011;10082;51.038;6.992;2024-02-26T10:14:04;3.17;;;2.80;;
19842;SDS011;10082;51.038;6.992;2024-02-26T10:16:32;2.93;;;2.60;;
19842;SDS011;10082;51.038;6.992;2024-02-26T10:19:00;3.13;;;2.83;;
19842;SDS011;10082;51.038;6.992;2024-02-26T10:21:27;2.83;;;2.63;;
19842;SDS011;10082;51.038;6.992;2024-02-26T10:23:56;3.23;;;2.93;;
19842;SDS011;10082;51.038;6.992;2024-02-26T10:26:23;2.70;;;2.37;;
19842;SDS011;10082;51.038;6.992;2024-02-26T10:28:50;3.42;;;2.58;;
19842;SDS011;10082;51.038;6.992;2024-02-26T10:31:18;3.10;;;2.80;;
19842;SDS011;10082;51.038;6.992;2024-02-26T10:33:45;2.83;;;2.63;;
19842;SDS011;10082;51.038;6.992;2024-02-26T10:36:12;4.28;;;3.25;;
19842;SDS011;10082;51.038;6.992;2024-02-26T10:38:39;3.67;;;3.00;;
19842;SDS011;10082;51.038;6.992;2024-02-26T10:41:12;3.15;;;2.85;;
19842;SDS011;10082;51.038;6.992;2024-02-26T10:43:40;3.08;;;2.47;;
19842;SDS011;10082;51.038;6.992;2024-02-26T10:46:08;4.10;;;2.90;;
19842;SDS011;10082;51.038;6.992;2024-02-26T10:48:35;3.60;;;2.90;;
19842;SDS011;10082;51.038;6.992;2024-02-26T10:51:03;4.10;;;3.40;;
19842;SDS011;10082;51.038;6.992;2024-02-26T10:53:31;4.35;;;3.33;;
19842;SDS011;10082;51.038;6.992;2024-02-26T10:56:01;3.05;;;2.72;;
19842;SDS011;10082;51.038;6.992;2024-02-26T10:58:31;3.25;;;2.70;;
19842;SDS011;10082;51.038;6.992;2024-02-26T11:00:58;4.18;;;3.47;;
19842;SDS011;10082;51.038;6.992;2024-02-26T11:03:26;4.50;;;3.50;;
19842;SDS011;10082;51.038;6.992;2024-02-26T11:05:59;3.25;;;2.80;;
19842;SDS011;10082;51.038;6.992;2024-02-26T11:08:28;3.60;;;3.30;;
19842;SDS011;10082;51.038;6.992;2024-02-26T11:10:57;3.50;;;3.17;;
19842;SDS011;10082;51.038;6.992;2024-02-26T11:13:26;3.00;;;2.80;;
19842;SDS011;10082;51.038;6.992;2024-02-26T11:15:56;3.72;;;3.30;;
19842;SDS011;10082;51.038;6.992;2024-02-26T11:18:24;3.08;;;2.72;;
19842;SDS011;10082;51.038;6.992;2024-02-26T11:20:54;3.17;;;2.92;;
19842;SDS011;10082;51.038;6.992;2024-02-26T11:23:23;3.20;;;2.90;;
19842;SDS011;10082;51.038;6.992;2024-02-26T11:25:50;3.10;;;2.80;;
19842;SDS011;10082;51.038;6.992;2024-02-26T11:28:18;3.60;;;2.80;;
19842;SDS011;10082;51.038;6.992;2024-02-26T11:30:47;3.28;;;3.00;;
19842;SDS011;10082;51.038;6.992;2024-02-26T11:33:17;4.13;;;3.50;;
19842;SDS011;10082;51.038;6.992;2024-02-26T11:35:45;3.30;;;3.00;;
19842;SDS011;10082;51.038;6.992;2024-02-26T11:38:17;3.25;;;2.95;;
19842;SDS011;10082;51.038;6.992;2024-02-26T11:40:46;3.55;;;3.28;;
19842;SDS011;10082;51.038;6.992;2024-02-26T11:43:14;3.47;;;2.88;;
19842;SDS011;10082;51.038;6.992;2024-02-26T11:45:53;3.08;;;2.80;;
19842;SDS011;10082;51.038;6.992;2024-02-26T11:48:28;4.05;;;2.88;;
19842;SDS011;10082;51.038;6.992;2024-02-26T11:50:55;3.83;;;3.00;;
19842;SDS011;10082;51.038;6.992;2024-02-26T11:53:25;3.97;;;3.20;;
19842;SDS011;10082;51.038;6.992;2024-02-26T11:56:12;3.88;;;2.92;;
19842;SDS011;10082;51.038;6.992;2024-02-26T11:58:46;3.28;;;2.97;;
19842;SDS011;10082;51.038;6.992;2024-02-26T12:04:11;4.00;;;2.90;;
19842;SDS011;10082;51.038;6.992;2024-02-26T12:06:44;3.45;;;3.13;;
19842;SDS011;10082;51.038;6.992;2024-02-26T12:09:18;3.30;;;3.00;;
19842;SDS011;10082;51.038;6.992;2024-02-26T12:11:57;3.22;;;2.90;;
19842;SDS011;10082;51.038;6.992;2024-02-26T12:14:25;3.20;;;2.90;;
19842;SDS011;10082;51.038;6.992;2024-02-26T12:16:53;3.38;;;3.08;;
19842;SDS011;10082;51.038;6.992;2024-02-26T12:19:25;3.92;;;3.10;;
19842;SDS011;10082;51.038;6.992;2024-02-26T12:21:54;3.70;;;3.08;;
19842;SDS011;10082;51.038;6.992;2024-02-26T12:24:21;4.00;;;3.40;;
19842;SDS011;10082;51.038;6.992;2024-02-26T12:26:50;3.30;;;3.00;;
19842;SDS011;10082;51.038;6.992;2024-02-26T12:29:17;3.38;;;3.08;;
19842;SDS011;10082;51.038;6.992;2024-02-26T12:31:44;2.95;;;2.65;;
19842;SDS011;10082;51.038;6.992;2024-02-26T12:34:11;3.63;;;3.25;;
19842;SDS011;10082;51.038;6.992;2024-02-26T12:36:40;3.40;;;3.00;;
19842;SDS011;10082;51.038;6.992;2024-02-26T12:39:07;3.78;;;2.60;;
19842;SDS011;10082;51.038;6.992;2024-02-26T12:41:35;2.88;;;2.67;;
19842;SDS011;10082;51.038;6.992;2024-02-26T12:44:03;3.80;;;3.05;;
19842;SDS011;10082;51.038;6.992;2024-02-26T12:46:30;3.17;;;2.60;;
19842;SDS011;10082;51.038;6.992;2024-02-26T12:49:03;3.60;;;2.63;;
19842;SDS011;10082;51.038;6.992;2024-02-26T12:51:31;3.25;;;2.95;;
19842;SDS011;10082;51.038;6.992;2024-02-26T12:54:01;3.17;;;2.88;;
19842;SDS011;10082;51.038;6.992;2024-02-26T12:56:28;3.03;;;2.80;;
19842;SDS011;10082;51.038;6.992;2024-02-26T12:58:57;3.47;;;2.70;;
19842;SDS011;10082;51.038;6.992;2024-02-26T13:01:25;3.05;;;2.80;;
19842;SDS011;10082;51.038;6.992;2024-02-26T13:03:53;2.97;;;2.65;;
19842;SDS011;10082;51.038;6.992;2024-02-26T13:06:20;3.13;;;2.58;;
19842;SDS011;10082;51.038;6.992;2024-02-26T13:08:48;3.45;;;3.15;;
19842;SDS011;10082;51.038;6.992;2024-02-26T13:11:17;2.70;;;2.50;;
19842;SDS011;10082;51.038;6.992;2024-02-26T13:13:47;4.10;;;3.28;;
19842;SDS011;10082;51.038;6.992;2024-02-26T13:16:14;3.63;;;3.33;;
19842;SDS011;10082;51.038;6.992;2024-02-26T13:18:42;3.40;;;3.10;;
19842;SDS011;10082;51.038;6.992;2024-02-26T13:21:10;3.63;;;3.33;;
19842;SDS011;10082;51.038;6.992;2024-02-26T13:23:38;3.85;;;3.50;;
19842;SDS011;10082;51.038;6.992;2024-02-26T13:26:07;3.58;;;3.28;;
19842;SDS011;10082;51.038;6.992;2024-02-26T13:28:38;4.18;;;3.88;;
19842;SDS011;10082;51.038;6.992;2024-02-26T13:31:05;6.07;;;4.28;;
19842;SDS011;10082;51.038;6.992;2024-02-26T13:33:34;5.88;;;4.90;;
19842;SDS011;10082;51.038;6.992;2024-02-26T13:36:02;4.72;;;4.30;;
19842;SDS011;10082;51.038;6.992;2024-02-26T13:38:30;5.50;;;4.70;;
19842;SDS011;10082;51.038;6.992;2024-02-26T13:40:57;5.88;;;4.70;;
19842;SDS011;10082;51.038;6.992;2024-02-26T13:43:25;5.65;;;5.07;;
19842;SDS011;10082;51.038;6.992;2024-02-26T13:45:54;6.18;;;4.85;;
19842;SDS011;10082;51.038;6.992;2024-02-26T13:48:21;5.50;;;5.00;;
19842;SDS011;10082;51.038;6.992;2024-02-26T13:50:48;6.00;;;5.40;;
19842;SDS011;10082;51.038;6.992;2024-02-26T13:53:15;5.22;;;4.72;;
19842;SDS011;10082;51.038;6.992;2024-02-26T13:58:23;5.63;;;5.10;;
19842;SDS011;10082;51.038;6.992;2024-02-26T14:00:53;5.72;;;5.22;;
19842;SDS011;10082;51.038;6.992;2024-02-26T14:03:20;6.00;;;5.50;;
19842;SDS011;10082;51.038;6.992;2024-02-26T14:05:47;5.90;;;5.32;;
19842;SDS011;10082;51.038;6.992;2024-02-26T14:08:15;6.38;;;5.60;;
19842;SDS011;10082;51.038;6.992;2024-02-26T14:10:42;6.65;;;6.00;;
19842;SDS011;10082;51.038;6.992;2024-02-26T14:13:09;6.13;;;5.53;;
19842;SDS011;10082;51.038;6.992;2024-02-26T14:15:36;7.10;;;6.40;;
19842;SDS011;10082;51.038;6.992;2024-02-26T14:18:06;6.10;;;5.45;;
19842;SDS011;10082;51.038;6.992;2024-02-26T14:20:34;6.22;;;5.63;;
19842;SDS011;10082;51.038;6.992;2024-02-26T14:23:00;6.68;;;6.05;;
19842;SDS011;10082;51.038;6.992;2024-02-26T14:25:28;6.75;;;6.05;;
19842;SDS011;10082;51.038;6.992;2024-02-26T14:27:55;7.45;;;6.68;;
19842;SDS011;10082;51.038;6.992;2024-02-26T14:30:23;6.93;;;6.30;;
19842;SDS011;10082;51.038;6.992;2024-02-26T14:32:51;7.07;;;6.40;;
19842;SDS011;10082;51.038;6.992;2024-02-26T14:35:19;6.82;;;6.10;;
19842;SDS011;10082;51.038;6.992;2024-02-26T14:37:46;6.63;;;6.03;;
19842;SDS011;10082;51.038;6.992;2024-02-26T14:40:14;7.70;;;6.70;;
19842;SDS011;10082;51.038;6.992;2024-02-26T14:42:41;7.28;;;6.57;;
19842;SDS011;10082;51.038;6.992;2024-02-26T14:45:09;6.20;;;5.60;;
19842;SDS011;10082;51.038;6.992;2024-02-26T14:47:36;6.95;;;6.25;;
19842;SDS011;10082;51.038;6.992;2024-02-26T14:50:04;6.78;;;6.18;;
19842;SDS011;10082;51.038;6.992;2024-02-26T14:52:33;7.00;;;6.38;;
19842;SDS011;10082;51.038;6.992;2024-02-26T14:55:00;7.55;;;6.85;;
19842;SDS011;10082;51.038;6.992;2024-02-26T14:57:27;7.13;;;6.47;;
19842;SDS011;10082;51.038;6.992;2024-02-26T14:59:53;7.65;;;6.90;;